Time;durP1;ratioP1;P1;durP2;ratioP2;P2;SDS_P1;SDS_P2;PMS_P1;PMS_P2;Temp;Humidity;BMP_temperature;BMP_pressure;BME280_temperature;BME280_humidity;BME280_pressure;Samples;Min_cycle;Max_cycle;Signal;HPM_P1;HPM_P2
2022/01/30 00:01:29;;;;;;;2.20;1.48;;;7.30;99.90;;;;;;4999863;28;20049;-80
2022/01/30 00:03:55;;;;;;;4.95;1.55;;;7.20;99.90;;;;;;5000094;28;20061;-79
2022/01/30 00:06:20;;;;;;;9.32;2.40;;;7.20;99.90;;;;;;4999530;28;20049;-80
2022/01/30 00:08:47;;;;;;;1.58;1.27;;;7.20;99.90;;;;;;4998162;28;20046;-80
2022/01/30 00:11:18;;;;;;;4.32;1.63;;;7.20;99.90;;;;;;5000276;28;20117;-80
2022/01/30 00:13:44;;;;;;;1.92;1.75;;;7.20;99.90;;;;;;4982771;28;20041;-79
2022/01/30 00:16:10;;;;;;;17.20;4.07;;;7.20;99.90;;;;;;4998610;28;20504;-79
2022/01/30 00:18:47;;;;;;;8.20;2.08;;;7.20;99.90;;;;;;5000377;28;20073;-80
2022/01/30 00:21:31;;;;;;;7.60;1.45;;;7.10;99.90;;;;;;5000004;28;20371;-79
2022/01/30 00:24:08;;;;;;;4.22;2.15;;;7.10;99.90;;;;;;4998203;28;20511;-80
2022/01/30 00:26:36;;;;;;;9.45;3.42;;;7.00;99.90;;;;;;5000125;28;20048;-79
2022/01/30 00:29:03;;;;;;;19.25;3.15;;;7.00;99.90;;;;;;4998684;28;20058;-79
2022/01/30 00:31:30;;;;;;;15.30;3.70;;;7.00;99.90;;;;;;4985069;28;20050;-80
2022/01/30 00:33:56;;;;;;;29.95;1.83;;;6.90;99.90;;;;;;4986010;28;20042;-80
2022/01/30 00:36:22;;;;;;;14.60;1.52;;;6.90;99.90;;;;;;5003169;28;20373;-79
2022/01/30 00:38:47;;;;;;;23.58;2.47;;;6.90;99.90;;;;;;5003354;28;20038;-80
2022/01/30 00:41:13;;;;;;;5.13;2.90;;;6.90;99.90;;;;;;5004280;28;20424;-79
2022/01/30 00:43:39;;;;;;;13.85;2.72;;;6.80;99.90;;;;;;5002008;28;20051;-79
2022/01/30 00:46:04;;;;;;;4.65;2.88;;;6.80;99.90;;;;;;5003674;28;20046;-80
2022/01/30 00:48:30;;;;;;;5.20;2.00;;;6.70;99.90;;;;;;5003573;28;20507;-80
2022/01/30 00:50:55;;;;;;;12.60;2.63;;;6.70;99.90;;;;;;5001997;28;20073;-80
2022/01/30 00:53:21;;;;;;;3.25;1.95;;;6.70;99.90;;;;;;5002742;28;20046;-80
2022/01/30 00:55:47;;;;;;;10.27;2.17;;;6.70;99.90;;;;;;5003231;28;20049;-80
2022/01/30 00:58:13;;;;;;;4.18;1.05;;;6.60;99.90;;;;;;5002230;28;20420;-80
2022/01/30 01:00:38;;;;;;;8.38;2.72;;;6.60;99.90;;;;;;5003139;28;20037;-80
2022/01/30 01:03:04;;;;;;;15.60;1.90;;;6.60;99.90;;;;;;5001438;28;20637;-80
2022/01/30 01:05:33;;;;;;;4.53;1.20;;;6.50;99.90;;;;;;4985595;28;20493;-80
2022/01/30 01:08:02;;;;;;;13.20;1.65;;;6.50;99.90;;;;;;5002212;28;20109;-79
2022/01/30 01:13:09;;;;;;;7.10;2.80;;;6.50;99.90;;;;;;4985332;28;20092;-80
2022/01/30 01:23:51;;;;;;;4.43;2.15;;;6.50;99.90;;;;;;5001073;28;20056;-80
2022/01/30 01:26:18;;;;;;;11.35;3.38;;;6.40;99.90;;;;;;5002608;28;20076;-80
2022/01/30 01:28:44;;;;;;;7.97;2.38;;;6.50;99.90;;;;;;5002597;28;20074;-80
2022/01/30 01:31:10;;;;;;;8.45;2.38;;;6.50;99.90;;;;;;4997317;28;20092;-80
2022/01/30 01:33:54;;;;;;;6.60;1.88;;;6.50;99.90;;;;;;5002212;28;20049;-79
2022/01/30 01:36:20;;;;;;;4.03;1.88;;;6.60;99.90;;;;;;5000254;28;20117;-80
2022/01/30 01:38:46;;;;;;;21.30;1.58;;;6.60;99.90;;;;;;5001693;28;20191;-80
2022/01/30 01:41:14;;;;;;;22.13;3.67;;;6.60;99.90;;;;;;5001952;28;20046;-80
2022/01/30 01:43:40;;;;;;;2.85;1.85;;;6.70;99.90;;;;;;5001701;28;20048;-79
2022/01/30 01:46:13;;;;;;;8.48;2.90;;;6.70;99.90;;;;;;5001063;28;20041;-80
2022/01/30 01:48:39;;;;;;;8.95;2.80;;;6.70;99.90;;;;;;5002046;28;20133;-79
2022/01/30 01:51:07;;;;;;;5.65;2.67;;;6.70;99.90;;;;;;5001848;28;20144;-79
2022/01/30 01:53:33;;;;;;;18.63;3.65;;;6.80;99.90;;;;;;5000806;28;20049;-79
2022/01/30 01:55:59;;;;;;;6.22;1.17;;;6.80;99.90;;;;;;5000357;28;20136;-80
2022/01/30 01:58:26;;;;;;;2.22;1.70;;;6.80;99.90;;;;;;5000596;28;21145;-80
2022/01/30 02:00:51;;;;;;;5.57;1.88;;;6.80;99.90;;;;;;5001494;28;20154;-80
2022/01/30 02:03:19;;;;;;;5.25;3.22;;;6.80;99.90;;;;;;5001326;28;20144;-80
2022/01/30 02:05:52;;;;;;;6.43;2.97;;;6.80;99.90;;;;;;5001884;28;20065;-80
2022/01/30 02:25:18;;;;;;;8.82;2.10;;;6.70;99.90;;;;;;5000399;28;20056;-79
2022/01/30 02:27:04;;;;;;;4.78;1.08;;;6.60;99.90;;;;;;4990891;28;20294;-79
2022/01/30 02:29:30;;;;;;;0.82;0.82;;;6.50;99.90;;;;;;5001151;28;20045;-79
2022/01/30 02:31:58;;;;;;;6.93;1.48;;;6.50;99.90;;;;;;4981566;28;20053;-79
2022/01/30 02:34:28;;;;;;;5.10;1.88;;;6.40;99.90;;;;;;4980616;28;20058;-79
2022/01/30 02:36:55;;;;;;;12.95;1.90;;;6.30;99.90;;;;;;4981219;28;20070;-79
2022/01/30 02:39:21;;;;;;;3.50;2.28;;;6.20;99.90;;;;;;4987538;28;20069;-79
2022/01/30 02:41:48;;;;;;;11.80;1.75;;;6.20;99.90;;;;;;5001246;28;20038;-79
2022/01/30 02:44:24;;;;;;;12.38;2.70;;;6.20;99.90;;;;;;4999590;28;20050;-79
2022/01/30 02:46:55;;;;;;;10.85;2.80;;;6.20;99.90;;;;;;5001248;28;20048;-79
2022/01/30 02:52:01;;;;;;;7.00;2.22;;;6.20;99.90;;;;;;5000548;28;20088;-80
2022/01/30 02:54:28;;;;;;;25.70;4.03;;;6.20;99.90;;;;;;4999549;28;20046;-79
2022/01/30 02:56:54;;;;;;;6.95;3.00;;;6.20;99.90;;;;;;5001078;28;20045;-79
2022/01/30 02:59:20;;;;;;;16.05;3.22;;;6.30;99.90;;;;;;5001228;28;20038;-80
2022/01/30 03:01:46;;;;;;;7.38;3.00;;;6.20;99.90;;;;;;4999289;28;20492;-79
2022/01/30 03:04:11;;;;;;;8.93;3.42;;;6.30;99.90;;;;;;5001581;28;20064;-79
2022/01/30 03:06:37;;;;;;;4.45;2.60;;;6.30;99.90;;;;;;4998960;28;20038;-79
2022/01/30 03:09:08;;;;;;;15.32;2.92;;;6.30;99.90;;;;;;5000636;28;20493;-79
2022/01/30 03:11:34;;;;;;;6.88;1.95;;;6.30;99.90;;;;;;5000069;28;20469;-79
2022/01/30 03:14:00;;;;;;;17.55;3.72;;;6.30;99.90;;;;;;5000535;28;20052;-79
2022/01/30 03:16:26;;;;;;;5.85;2.63;;;6.30;99.90;;;;;;5000076;28;20042;-79
2022/01/30 03:18:52;;;;;;;22.65;2.75;;;6.30;99.90;;;;;;4999308;28;20042;-80
2022/01/30 03:21:18;;;;;;;20.90;4.43;;;6.30;99.90;;;;;;4999804;28;20045;-79
2022/01/30 03:23:44;;;;;;;11.05;2.58;;;6.30;99.90;;;;;;5001178;28;20046;-79
2022/01/30 03:26:11;;;;;;;11.23;2.35;;;6.30;99.90;;;;;;5000134;28;20077;-79
2022/01/30 03:28:41;;;;;;;10.88;2.78;;;6.40;99.90;;;;;;5000591;28;20517;-79
2022/01/30 03:31:09;;;;;;;17.05;3.00;;;6.40;99.90;;;;;;4987680;28;20042;-79
2022/01/30 03:33:35;;;;;;;4.55;1.73;;;6.40;99.90;;;;;;4980827;28;20054;-79
2022/01/30 03:36:01;;;;;;;16.55;4.28;;;6.30;99.90;;;;;;4980375;28;20665;-79
2022/01/30 03:38:27;;;;;;;3.53;2.22;;;6.20;99.90;;;;;;4980388;28;20043;-79
2022/01/30 03:40:53;;;;;;;16.67;3.28;;;6.20;99.90;;;;;;4981310;28;20049;-79
2022/01/30 03:43:18;;;;;;;1.27;1.17;;;6.10;99.90;;;;;;4980887;28;20526;-79
2022/01/30 03:45:45;;;;;;;11.25;3.70;;;6.10;99.90;;;;;;4981899;28;20047;-79
2022/01/30 03:48:12;;;;;;;4.65;3.30;;;6.00;99.90;;;;;;4981198;28;20057;-79
2022/01/30 03:50:38;;;;;;;7.03;2.47;;;6.00;99.90;;;;;;4980112;28;20090;-79
2022/01/30 03:53:04;;;;;;;16.40;2.45;;;6.00;99.90;;;;;;4979812;28;20113;-79
2022/01/30 03:55:30;;;;;;;4.50;1.88;;;6.00;99.90;;;;;;4997099;28;20081;-79
2022/01/30 03:57:56;;;;;;;16.13;3.58;;;6.00;99.90;;;;;;5000339;28;20046;-79
2022/01/30 04:00:21;;;;;;;8.10;2.78;;;6.00;99.90;;;;;;5000675;28;20131;-79
2022/01/30 04:02:47;;;;;;;7.47;1.50;;;6.00;99.90;;;;;;5000080;28;20046;-79
2022/01/30 04:05:13;;;;;;;4.78;2.30;;;6.00;99.90;;;;;;4999532;28;20058;-80
2022/01/30 04:07:39;;;;;;;15.25;3.42;;;6.00;99.90;;;;;;5002651;28;20050;-79
2022/01/30 04:10:06;;;;;;;5.68;2.08;;;6.00;99.90;;;;;;5004582;28;20055;-79
2022/01/30 04:12:32;;;;;;;8.57;2.42;;;6.00;99.90;;;;;;5003933;28;20069;-79
2022/01/30 04:14:58;;;;;;;6.18;3.35;;;6.00;99.90;;;;;;5004408;28;20054;-79
2022/01/30 04:17:24;;;;;;;4.00;2.80;;;6.00;99.90;;;;;;5002852;28;20133;-79
2022/01/30 04:19:50;;;;;;;19.10;3.30;;;6.00;99.90;;;;;;5004018;28;20041;-79
2022/01/30 04:22:16;;;;;;;21.10;3.30;;;6.00;99.90;;;;;;5002844;28;20105;-79
2022/01/30 04:24:42;;;;;;;4.10;1.63;;;6.10;99.90;;;;;;5004932;28;20045;-79
2022/01/30 04:27:07;;;;;;;21.45;2.92;;;6.10;99.90;;;;;;5003572;28;20777;-79
2022/01/30 04:29:33;;;;;;;4.55;2.63;;;6.10;99.90;;;;;;5003281;28;20550;-79
2022/01/30 04:32:00;;;;;;;12.55;3.67;;;6.10;99.90;;;;;;4983938;28;20089;-80
2022/01/30 04:34:27;;;;;;;7.07;3.95;;;6.10;99.90;;;;;;4994225;28;20053;-79
2022/01/30 04:37:04;;;;;;;6.68;2.67;;;6.10;99.90;;;;;;5002302;28;20112;-79
2022/01/30 04:56:37;;;;;;;10.95;2.50;;;6.10;99.90;;;;;;5002474;28;20084;-79
2022/01/30 04:58:31;;;;;;;6.93;3.13;;;6.10;99.90;;;;;;5001558;28;20105;-79
2022/01/30 05:01:05;;;;;;;13.20;3.38;;;6.10;99.90;;;;;;5002781;28;20501;-79
2022/01/30 05:03:41;;;;;;;14.63;2.78;;;6.10;99.90;;;;;;5002461;28;20053;-79
2022/01/30 05:06:12;;;;;;;1.80;1.48;;;6.10;99.90;;;;;;5001476;28;20432;-80
2022/01/30 05:08:38;;;;;;;3.83;2.83;;;6.10;99.90;;;;;;5003470;28;20511;-80
2022/01/30 05:11:06;;;;;;;15.70;3.70;;;6.10;99.90;;;;;;4985360;28;20046;-79
2022/01/30 05:13:34;;;;;;;8.43;3.58;;;6.00;99.90;;;;;;5003060;28;20050;-80
2022/01/30 05:16:00;;;;;;;18.83;5.40;;;6.00;99.90;;;;;;5003270;28;20042;-79
2022/01/30 05:18:28;;;;;;;13.65;3.42;;;6.10;99.90;;;;;;5002458;28;20768;-79
2022/01/30 05:20:54;;;;;;;23.00;3.58;;;6.10;99.90;;;;;;5002064;28;20485;-79
2022/01/30 05:23:20;;;;;;;3.72;2.38;;;6.10;99.90;;;;;;5002705;28;20557;-79
2022/01/30 05:25:48;;;;;;;11.30;4.05;;;6.00;99.90;;;;;;5002785;28;20045;-79
2022/01/30 05:28:15;;;;;;;11.10;2.97;;;6.10;99.90;;;;;;5003070;28;20046;-79
2022/01/30 05:30:41;;;;;;;6.72;3.58;;;6.00;99.90;;;;;;4993564;28;20125;-79
2022/01/30 05:33:07;;;;;;;16.33;3.92;;;6.00;99.90;;;;;;4994847;28;20511;-79
2022/01/30 05:35:33;;;;;;;7.28;2.90;;;6.00;99.90;;;;;;5002482;28;20038;-79
2022/01/30 05:37:59;;;;;;;25.15;5.65;;;6.00;99.90;;;;;;5002272;28;20508;-79
2022/01/30 05:40:25;;;;;;;9.73;3.63;;;6.00;99.90;;;;;;5001269;28;20045;-79
2022/01/30 05:42:51;;;;;;;19.02;4.88;;;6.10;99.90;;;;;;5002347;28;20492;-79
2022/01/30 05:45:24;;;;;;;17.75;2.30;;;6.10;99.90;;;;;;5001914;28;20034;-79
2022/01/30 05:47:58;;;;;;;21.38;2.17;;;6.10;99.90;;;;;;5001793;28;20112;-80
2022/01/30 05:50:24;;;;;;;9.82;4.13;;;6.20;99.90;;;;;;5001811;28;20614;-79
2022/01/30 05:52:49;;;;;;;3.90;2.28;;;6.20;99.90;;;;;;5001347;28;20042;-79
2022/01/30 05:55:15;;;;;;;14.10;4.97;;;6.20;99.90;;;;;;5002041;28;20046;-80
2022/01/30 05:57:41;;;;;;;7.90;2.78;;;6.20;99.90;;;;;;5002774;28;20120;-79
2022/01/30 06:00:13;;;;;;;19.95;4.22;;;6.20;99.90;;;;;;5001592;28;20129;-79
2022/01/30 06:02:40;;;;;;;6.78;4.43;;;6.20;99.90;;;;;;5001750;28;20049;-80
2022/01/30 06:05:07;;;;;;;7.47;3.38;;;6.20;99.90;;;;;;5001367;28;20061;-79
2022/01/30 06:07:33;;;;;;;10.93;2.53;;;6.20;99.90;;;;;;5001038;28;20072;-80
2022/01/30 06:09:58;;;;;;;25.17;5.00;;;6.20;99.90;;;;;;5001596;28;20509;-79
2022/01/30 06:12:24;;;;;;;13.50;3.17;;;6.20;99.90;;;;;;5001510;28;20046;-79
2022/01/30 06:14:51;;;;;;;6.43;3.22;;;6.20;99.90;;;;;;5001508;28;20100;-79
2022/01/30 06:17:17;;;;;;;20.52;3.42;;;6.20;99.90;;;;;;5001722;28;20092;-80
2022/01/30 06:19:42;;;;;;;11.93;3.60;;;6.20;99.90;;;;;;5002298;28;20078;-79
2022/01/30 06:22:08;;;;;;;12.70;3.60;;;6.20;99.90;;;;;;4999004;28;20042;-80
2022/01/30 06:24:33;;;;;;;19.55;2.97;;;6.20;99.90;;;;;;5000555;28;20056;-79
2022/01/30 06:26:59;;;;;;;43.50;4.75;;;6.20;99.90;;;;;;4999810;28;20064;-79
2022/01/30 06:29:24;;;;;;;9.75;3.95;;;6.20;99.90;;;;;;5000943;28;20050;-80
2022/01/30 06:31:50;;;;;;;7.05;3.80;;;6.20;99.90;;;;;;4981894;28;20038;-80
2022/01/30 06:34:16;;;;;;;19.42;2.50;;;6.20;99.90;;;;;;4981928;28;20053;-80
2022/01/30 06:36:41;;;;;;;16.33;3.90;;;6.30;99.90;;;;;;4994441;28;20041;-80
2022/01/30 06:39:07;;;;;;;35.85;4.65;;;6.30;99.90;;;;;;5000933;28;20052;-80
2022/01/30 06:41:32;;;;;;;13.30;2.78;;;6.30;99.90;;;;;;5001318;28;20405;-80
2022/01/30 06:43:58;;;;;;;20.40;4.20;;;6.30;99.90;;;;;;5000284;28;20472;-80
2022/01/30 06:46:24;;;;;;;7.07;3.75;;;6.30;99.90;;;;;;4999976;28;20823;-80
2022/01/30 06:48:49;;;;;;;17.23;3.92;;;6.30;99.90;;;;;;5000853;28;20045;-80
2022/01/30 06:51:15;;;;;;;19.30;4.43;;;6.30;99.90;;;;;;5000780;28;20408;-80
2022/01/30 06:53:40;;;;;;;30.25;4.95;;;6.30;99.90;;;;;;5000117;28;20042;-80
2022/01/30 06:56:07;;;;;;;32.03;3.97;;;6.30;99.90;;;;;;4999919;28;20054;-80
2022/01/30 06:58:33;;;;;;;17.35;4.35;;;6.30;99.90;;;;;;5000643;28;20052;-80
2022/01/30 07:00:58;;;;;;;6.32;3.78;;;6.30;99.90;;;;;;4999860;28;20046;-80
2022/01/30 07:03:24;;;;;;;4.60;3.58;;;6.30;99.90;;;;;;4999646;28;20077;-80
2022/01/30 07:05:49;;;;;;;12.25;3.50;;;6.30;99.90;;;;;;4998036;28;20316;-80
2022/01/30 07:08:15;;;;;;;8.57;2.40;;;6.30;99.90;;;;;;5001121;28;20034;-80
2022/01/30 07:10:41;;;;;;;2.97;2.20;;;6.30;99.90;;;;;;5002016;28;20448;-80
2022/01/30 07:13:08;;;;;;;20.10;3.47;;;6.30;99.90;;;;;;5000156;28;20471;-79
2022/01/30 07:15:34;;;;;;;4.68;2.65;;;6.30;99.90;;;;;;5001741;28;20046;-80
2022/01/30 07:18:00;;;;;;;19.65;3.65;;;6.30;99.90;;;;;;5000655;28;20137;-80
2022/01/30 07:20:26;;;;;;;11.70;3.50;;;6.30;99.90;;;;;;4999394;28;20136;-79
2022/01/30 07:22:51;;;;;;;7.60;3.33;;;6.30;99.90;;;;;;5000419;28;20050;-80
2022/01/30 07:25:17;;;;;;;12.52;3.47;;;6.30;99.90;;;;;;5000302;28;20477;-80
2022/01/30 07:27:42;;;;;;;6.50;3.20;;;6.20;99.90;;;;;;5001126;28;20049;-79
2022/01/30 07:30:09;;;;;;;9.00;2.83;;;6.20;99.90;;;;;;4993940;28;20559;-80
2022/01/30 07:32:34;;;;;;;5.45;2.80;;;6.20;99.90;;;;;;4963791;28;20500;-80
2022/01/30 07:35:00;;;;;;;13.65;3.75;;;6.20;99.90;;;;;;4982853;28;20031;-80
2022/01/30 07:37:26;;;;;;;5.88;3.45;;;6.20;99.90;;;;;;4999589;28;20046;-80
2022/01/30 07:39:52;;;;;;;16.80;4.60;;;6.20;99.90;;;;;;5001173;28;20049;-80
2022/01/30 07:42:19;;;;;;;15.30;3.55;;;6.20;99.90;;;;;;5003917;28;20088;-79
2022/01/30 07:44:45;;;;;;;14.30;3.05;;;6.20;99.90;;;;;;5003701;28;20082;-79
2022/01/30 07:47:10;;;;;;;9.32;2.58;;;6.20;99.90;;;;;;5004612;28;20053;-80
2022/01/30 07:49:36;;;;;;;8.10;2.70;;;6.20;99.90;;;;;;5002264;28;20056;-80
2022/01/30 07:52:02;;;;;;;22.27;3.35;;;6.20;99.90;;;;;;5003030;28;20049;-79
2022/01/30 07:54:28;;;;;;;6.10;2.47;;;6.20;99.90;;;;;;5004698;28;20478;-79
2022/01/30 07:56:54;;;;;;;22.80;5.43;;;6.20;99.90;;;;;;5003123;28;20053;-79
2022/01/30 07:59:20;;;;;;;9.93;3.25;;;6.20;99.90;;;;;;5004188;28;20042;-79
2022/01/30 08:01:46;;;;;;;4.65;2.42;;;6.20;99.90;;;;;;5004157;28;20798;-80
2022/01/30 08:04:12;;;;;;;12.63;3.65;;;6.20;99.90;;;;;;5003836;28;20065;-80
2022/01/30 08:06:38;;;;;;;10.77;4.10;;;6.20;99.90;;;;;;5000402;28;20046;-80
2022/01/30 08:09:03;;;;;;;2.78;2.53;;;6.20;99.90;;;;;;4985205;28;20038;-80
2022/01/30 08:11:29;;;;;;;15.10;2.80;;;6.20;99.90;;;;;;4984253;28;20096;-80
2022/01/30 08:13:55;;;;;;;22.08;3.92;;;6.20;99.90;;;;;;4983577;28;20042;-81
2022/01/30 08:16:21;;;;;;;2.63;2.22;;;6.10;99.90;;;;;;4994397;28;20040;-80
2022/01/30 08:18:46;;;;;;;11.60;3.45;;;6.10;99.90;;;;;;4991966;28;20314;-80
2022/01/30 08:21:12;;;;;;;7.47;3.05;;;6.10;99.90;;;;;;5002096;28;20049;-80
2022/01/30 08:23:38;;;;;;;4.70;2.72;;;6.00;99.90;;;;;;5002893;28;20126;-79
2022/01/30 08:26:04;;;;;;;8.50;3.88;;;6.10;99.90;;;;;;5003895;28;20128;-81
2022/01/30 08:28:30;;;;;;;14.68;3.47;;;6.00;99.90;;;;;;5003289;28;20041;-80
2022/01/30 08:30:56;;;;;;;8.35;2.83;;;6.00;99.90;;;;;;4991526;28;20559;-80
2022/01/30 08:33:22;;;;;;;29.67;3.08;;;6.00;99.90;;;;;;4984105;28;20138;-79
2022/01/30 08:35:47;;;;;;;15.70;2.65;;;6.00;99.90;;;;;;4982208;28;20133;-79
2022/01/30 08:38:16;;;;;;;11.40;3.97;;;6.00;99.90;;;;;;4993156;28;20543;-80
2022/01/30 08:40:42;;;;;;;12.50;3.08;;;6.00;99.90;;;;;;5002500;28;20125;-79
2022/01/30 08:43:07;;;;;;;4.72;2.50;;;6.00;99.90;;;;;;5003303;28;20056;-79
2022/01/30 08:45:33;;;;;;;17.70;2.53;;;6.00;99.90;;;;;;5003698;28;20046;-79
2022/01/30 08:47:59;;;;;;;8.43;2.67;;;6.10;99.90;;;;;;5001814;28;20515;-80
2022/01/30 08:50:24;;;;;;;10.48;4.05;;;6.10;99.90;;;;;;4990206;28;20030;-79
2022/01/30 08:52:51;;;;;;;7.32;2.28;;;6.10;99.90;;;;;;5002418;28;20547;-80
2022/01/30 08:55:17;;;;;;;10.60;2.10;;;6.10;99.90;;;;;;4996488;28;20093;-80
2022/01/30 08:57:43;;;;;;;10.95;2.50;;;6.10;99.90;;;;;;4995480;28;20062;-81
2022/01/30 09:00:12;;;;;;;30.05;4.75;;;6.10;99.90;;;;;;4997890;28;20416;-81
2022/01/30 09:02:38;;;;;;;4.45;2.28;;;6.10;99.90;;;;;;5003674;28;20037;-80
2022/01/30 09:05:08;;;;;;;12.40;2.80;;;6.10;99.90;;;;;;5001890;28;20064;-80
2022/01/30 09:07:34;;;;;;;9.32;1.83;;;6.10;99.90;;;;;;5003020;28;20045;-81
2022/01/30 09:10:00;;;;;;;6.65;3.38;;;6.10;99.90;;;;;;4992483;28;20057;-80
2022/01/30 09:12:26;;;;;;;18.70;3.78;;;6.10;99.90;;;;;;4992793;28;20042;-80
2022/01/30 09:14:52;;;;;;;18.10;4.82;;;6.10;99.90;;;;;;4997837;28;20386;-80
2022/01/30 09:17:18;;;;;;;5.00;2.58;;;6.10;99.90;;;;;;4985817;28;20089;-79
2022/01/30 09:19:46;;;;;;;10.40;4.60;;;6.20;99.90;;;;;;4990020;28;20520;-82
2022/01/30 09:22:15;;;;;;;14.88;3.65;;;6.20;99.90;;;;;;4991709;28;20108;-81
2022/01/30 09:24:42;;;;;;;9.50;3.40;;;6.20;99.90;;;;;;4990709;28;20133;-82
2022/01/30 09:27:08;;;;;;;8.27;2.22;;;6.20;99.90;;;;;;4991691;28;20054;-88
2022/01/30 09:32:21;;;;;;;6.03;2.67;;;6.30;99.90;;;;;;5059031;28;20131;-90
2022/01/30 09:34:47;;;;;;;6.53;2.53;;;6.40;99.90;;;;;;5042993;28;20044;-87
2022/01/30 09:37:13;;;;;;;7.85;4.30;;;6.40;99.90;;;;;;5062002;28;20372;-85
2022/01/30 09:39:39;;;;;;;11.20;3.22;;;6.40;99.90;;;;;;5028010;28;20052;-81
2022/01/30 09:42:06;;;;;;;22.63;4.20;;;6.40;99.90;;;;;;5037208;28;20064;-84
2022/01/30 09:44:41;;;;;;;10.43;3.78;;;6.30;99.90;;;;;;5049884;28;20631;-84
2022/01/30 09:47:16;;;;;;;13.32;3.90;;;6.30;99.90;;;;;;5031411;28;20044;-84
2022/01/30 09:49:50;;;;;;;11.90;3.38;;;6.30;99.90;;;;;;5052901;28;20047;-84
2022/01/30 09:52:17;;;;;;;7.38;1.75;;;6.30;99.90;;;;;;5049371;28;20581;-82
2022/01/30 09:54:44;;;;;;;24.52;2.78;;;6.30;99.90;;;;;;5036570;28;20051;-85
2022/01/30 09:57:14;;;;;;;4.60;2.08;;;6.30;99.90;;;;;;5055333;28;20416;-83
2022/01/30 09:59:39;;;;;;;12.30;3.38;;;6.30;99.90;;;;;;5042070;28;20139;-84
2022/01/30 10:02:07;;;;;;;11.50;2.83;;;6.40;99.90;;;;;;5061797;28;20657;-84
2022/01/30 10:04:36;;;;;;;14.52;3.60;;;6.40;99.90;;;;;;5030067;28;20051;-85
2022/01/30 10:07:16;;;;;;;11.98;2.63;;;6.40;99.90;;;;;;5060766;28;20080;-84
2022/01/30 10:09:47;;;;;;;9.32;3.03;;;6.40;99.90;;;;;;5036794;28;20068;-85
2022/01/30 10:12:24;;;;;;;9.65;2.38;;;6.40;99.90;;;;;;5052122;28;20121;-86
2022/01/30 10:15:05;;;;;;;20.70;2.97;;;6.50;99.90;;;;;;5014639;28;20053;-84
2022/01/30 10:17:42;;;;;;;13.18;3.20;;;6.50;99.90;;;;;;5052268;28;20082;-85
2022/01/30 10:20:08;;;;;;;3.90;2.40;;;6.50;99.90;;;;;;5050049;28;20043;-84
2022/01/30 10:22:36;;;;;;;7.75;2.67;;;6.50;99.90;;;;;;5062338;28;20052;-85
2022/01/30 10:25:03;;;;;;;4.95;2.72;;;6.50;99.90;;;;;;5039601;28;20063;-84
2022/01/30 10:27:30;;;;;;;10.38;4.05;;;6.60;99.90;;;;;;5043686;28;20047;-84
2022/01/30 10:30:01;;;;;;;11.68;2.83;;;6.60;99.90;;;;;;5061161;28;20037;-84
2022/01/30 10:32:27;;;;;;;2.90;2.42;;;6.60;99.90;;;;;;5051563;28;20054;-83
2022/01/30 10:35:05;;;;;;;12.02;3.17;;;6.60;99.90;;;;;;5054567;28;20123;-83
2022/01/30 10:37:33;;;;;;;16.50;2.28;;;6.60;99.90;;;;;;5047405;28;20085;-84
2022/01/30 10:40:14;;;;;;;16.13;2.25;;;6.60;99.90;;;;;;5050157;28;20288;-83
2022/01/30 10:42:42;;;;;;;15.60;2.33;;;6.60;99.90;;;;;;5051414;28;20418;-84
2022/01/30 10:45:19;;;;;;;2.25;1.63;;;6.60;99.90;;;;;;5032952;28;20048;-83
2022/01/30 10:47:45;;;;;;;14.30;2.40;;;6.60;99.90;;;;;;5022820;28;20174;-83
2022/01/30 10:50:14;;;;;;;30.33;4.25;;;6.60;99.90;;;;;;5034427;28;20479;-84
2022/01/30 10:52:49;;;;;;;16.00;3.83;;;6.60;99.90;;;;;;5045482;28;20706;-83
2022/01/30 10:55:15;;;;;;;2.88;2.03;;;6.60;99.90;;;;;;5054595;28;20434;-84
2022/01/30 10:57:44;;;;;;;15.45;2.83;;;6.60;99.90;;;;;;5037779;28;20189;-84
2022/01/30 11:00:10;;;;;;;3.03;1.77;;;6.60;99.90;;;;;;5060938;28;20510;-85
2022/01/30 11:02:39;;;;;;;14.43;4.30;;;6.60;99.90;;;;;;5043176;28;20036;-84
2022/01/30 11:05:10;;;;;;;15.90;4.60;;;6.60;99.90;;;;;;5036470;28;20591;-84
2022/01/30 11:07:36;;;;;;;14.07;2.55;;;6.60;99.90;;;;;;5026276;28;20483;-83
2022/01/30 11:12:42;;;;;;;29.58;2.15;;;6.60;99.90;;;;;;5061212;28;20044;-84
2022/01/30 11:15:21;;;;;;;14.98;2.75;;;6.70;99.90;;;;;;5060086;28;20044;-85
2022/01/30 11:17:47;;;;;;;11.70;3.90;;;6.70;99.90;;;;;;5059749;28;20091;-81
2022/01/30 11:20:14;;;;;;;10.27;2.05;;;6.70;99.90;;;;;;5040715;28;20506;-84
2022/01/30 11:22:44;;;;;;;5.20;2.97;;;6.70;99.90;;;;;;5046554;28;20048;-83
2022/01/30 11:25:12;;;;;;;8.60;3.55;;;6.70;99.90;;;;;;5042647;28;20159;-84
2022/01/30 11:27:40;;;;;;;19.85;3.38;;;6.70;99.90;;;;;;5042641;28;20056;-83
2022/01/30 11:30:07;;;;;;;13.57;4.28;;;6.70;99.90;;;;;;5025648;28;20041;-84
2022/01/30 11:32:33;;;;;;;6.10;3.13;;;6.70;99.90;;;;;;5060873;28;20088;-83
2022/01/30 11:34:58;;;;;;;8.90;3.00;;;6.70;99.90;;;;;;5042199;28;20092;-84
2022/01/30 11:37:29;;;;;;;13.00;3.10;;;6.80;99.90;;;;;;5041733;28;20044;-83
2022/01/30 11:39:55;;;;;;;21.25;3.15;;;6.80;99.90;;;;;;5041465;28;20448;-81
2022/01/30 11:42:25;;;;;;;11.23;5.43;;;6.80;99.90;;;;;;5060490;28;20490;-81
2022/01/30 11:45:16;;;;;;;8.57;3.50;;;6.80;99.90;;;;;;5041733;28;20052;-81
2022/01/30 11:47:43;;;;;;;16.17;3.13;;;6.80;99.90;;;;;;5060497;28;20041;-81
2022/01/30 11:50:09;;;;;;;12.02;3.08;;;6.80;99.90;;;;;;5041602;28;20044;-81
2022/01/30 11:52:56;;;;;;;6.75;2.40;;;6.90;99.90;;;;;;5060376;28;20333;-81
2022/01/30 11:55:56;;;;;;;1.50;1.40;;;6.90;99.90;;;;;;5022022;28;20037;-81
2022/01/30 11:58:38;;;;;;;1.73;1.58;;;6.80;99.90;;;;;;5023028;28;20047;-82
2022/01/30 12:01:26;;;;;;;15.07;3.50;;;6.80;99.90;;;;;;5022512;28;20129;-82
2022/01/30 12:04:07;;;;;;;9.80;3.13;;;6.80;99.90;;;;;;5024797;28;20269;-82
2022/01/30 12:06:35;;;;;;;6.97;3.20;;;6.80;99.90;;;;;;5059455;28;20051;-82
2022/01/30 12:09:20;;;;;;;3.30;1.50;;;6.80;99.90;;;;;;5059184;28;20036;-83
2022/01/30 12:11:48;;;;;;;10.82;3.10;;;6.80;99.90;;;;;;5059975;28;20392;-81
2022/01/30 12:14:23;;;;;;;6.65;2.35;;;6.90;99.90;;;;;;5059692;28;20124;-87
2022/01/30 12:16:57;;;;;;;15.35;3.42;;;6.90;99.90;;;;;;5022203;28;20076;-80
2022/01/30 12:19:37;;;;;;;13.63;2.92;;;6.80;99.90;;;;;;5021279;28;20049;-80
2022/01/30 12:22:18;;;;;;;21.27;3.67;;;6.90;99.90;;;;;;5039938;28;20114;-82
2022/01/30 12:24:45;;;;;;;15.60;2.95;;;6.90;99.90;;;;;;5011703;28;20140;-83
2022/01/30 12:27:11;;;;;;;29.30;2.85;;;6.90;99.90;;;;;;5050657;28;20052;-83
2022/01/30 12:29:42;;;;;;;13.05;2.20;;;6.80;99.90;;;;;;5030294;28;20036;-83
2022/01/30 12:32:31;;;;;;;4.35;2.05;;;6.90;99.90;;;;;;5063908;28;20044;-83
2022/01/30 12:34:56;;;;;;;6.68;3.08;;;6.80;99.90;;;;;;5062230;28;20044;-84
2022/01/30 12:37:28;;;;;;;12.25;3.05;;;6.80;99.90;;;;;;5063592;28;20123;-85
2022/01/30 12:39:55;;;;;;;19.45;2.90;;;6.80;99.90;;;;;;5045695;28;20056;-86
2022/01/30 12:42:22;;;;;;;11.35;2.75;;;6.80;99.90;;;;;;5053929;28;20119;-84
2022/01/30 12:44:48;;;;;;;11.15;2.47;;;6.80;99.90;;;;;;5043170;28;20188;-85
2022/01/30 12:47:17;;;;;;;13.02;3.35;;;6.80;99.90;;;;;;5037351;28;20058;-83
2022/01/30 12:49:48;;;;;;;9.05;2.88;;;6.80;99.90;;;;;;5055519;28;20694;-91
2022/01/30 12:52:50;;;;;;;15.38;2.67;;;6.80;99.90;;;;;;5024972;28;20080;-93
2022/01/30 12:55:38;;;;;;;9.65;3.22;;;6.80;99.90;;;;;;5038017;28;20462;-87
2022/01/30 12:58:04;;;;;;;18.73;3.22;;;6.80;99.90;;;;;;4975981;28;20053;-87
2022/01/30 13:00:30;;;;;;;47.15;4.70;;;6.80;99.90;;;;;;5026604;28;20476;-84
2022/01/30 13:02:59;;;;;;;4.03;2.63;;;6.80;99.90;;;;;;5042824;28;20052;-87
2022/01/30 13:05:29;;;;;;;6.28;2.95;;;6.90;99.90;;;;;;5023019;28;20037;-85
2022/01/30 13:07:57;;;;;;;8.23;2.33;;;6.90;99.90;;;;;;5044973;28;20399;-87
2022/01/30 13:10:24;;;;;;;20.48;1.95;;;7.00;99.90;;;;;;5062949;28;20037;-86
2022/01/30 13:12:50;;;;;;;25.77;3.53;;;7.00;99.90;;;;;;5062592;28;20040;-88
2022/01/30 13:15:19;;;;;;;35.88;2.42;;;7.00;99.90;;;;;;5044495;28;20445;-86
2022/01/30 13:17:45;;;;;;;27.05;3.70;;;7.00;99.90;;;;;;5039933;28;20056;-84
2022/01/30 13:20:12;;;;;;;10.77;2.67;;;7.10;99.90;;;;;;5022480;28;20187;-84
2022/01/30 13:22:41;;;;;;;20.80;3.10;;;7.10;99.90;;;;;;5057996;28;20033;-84
2022/01/30 13:25:09;;;;;;;16.65;2.90;;;7.10;99.90;;;;;;5043549;28;20041;-85
2022/01/30 13:27:40;;;;;;;13.55;3.15;;;7.10;99.90;;;;;;5043829;28;20044;-81
2022/01/30 13:30:07;;;;;;;14.75;2.83;;;7.10;99.90;;;;;;5056176;28;20041;-81
2022/01/30 13:32:37;;;;;;;11.38;2.28;;;7.10;99.90;;;;;;5050398;28;20512;-82
2022/01/30 13:35:13;;;;;;;4.35;2.33;;;7.10;99.90;;;;;;5055751;28;20044;-80
2022/01/30 13:37:39;;;;;;;9.85;2.53;;;7.10;99.90;;;;;;5035270;28;20048;-80
2022/01/30 13:40:19;;;;;;;2.85;2.33;;;7.20;99.90;;;;;;5041261;28;20055;-80
2022/01/30 13:48:08;;;;;;;8.20;1.92;;;7.20;99.90;;;;;;5047012;28;20055;-81
2022/01/30 13:50:53;;;;;;;16.95;3.20;;;7.10;99.90;;;;;;5031843;28;20067;-80
2022/01/30 13:53:21;;;;;;;3.78;1.95;;;7.20;99.90;;;;;;5039747;28;20037;-80